VSV436 ULLI-ULOO
Flight info
| Callsign | VSV436 |
|---|---|
| Flight time | 0h 54m |
| Altitude | 24000 |
| Route | RUMOL1A RUMOL DCT NELUM DCT ABMIS ABMIS3G |
| Aircraft | B738/M-SDE2E3FGHIRWXY/LB1 |
Departure
| Time | 2026-04-23 17:23 |
|---|---|
| Airport | Pulkovo Airport (ULLI) |
Arrival
| Time | 2026-04-23 18:17 |
|---|---|
| Airport | Princess Olga Pskov International Airport (ULOO) |
| Time | Latitude | Longitude | Altitude | Speed | Heading |
|---|---|---|---|---|---|
| 2026-04-23 16:34 | 59.80267 | 30.26566 | 84 ft | 0 kts | 287° |
| 2026-04-23 17:15 | 59.80268 | 30.26563 | 87 ft | 1 kts | 286° |
| 2026-04-23 17:15 | 59.80272 | 30.26527 | 83 ft | 4 kts | 284° |
| 2026-04-23 17:15 | 59.80292 | 30.26456 | 87 ft | 8 kts | 324° |
| 2026-04-23 17:16 | 59.80352 | 30.26450 | 86 ft | 10 kts | 5° |
| 2026-04-23 17:16 | 59.80426 | 30.26508 | 85 ft | 13 kts | 49° |
| 2026-04-23 17:16 | 59.80421 | 30.26691 | 83 ft | 15 kts | 106° |
| 2026-04-23 17:16 | 59.80400 | 30.26832 | 87 ft | 17 kts | 106° |
| 2026-04-23 17:17 | 59.80351 | 30.27159 | 82 ft | 20 kts | 107° |
| 2026-04-23 17:17 | 59.80307 | 30.27452 | 84 ft | 23 kts | 107° |
| 2026-04-23 17:17 | 59.80276 | 30.27662 | 81 ft | 25 kts | 106° |
| 2026-04-23 17:17 | 59.80209 | 30.28118 | 80 ft | 27 kts | 105° |
| 2026-04-23 17:18 | 59.80094 | 30.28887 | 75 ft | 31 kts | 107° |
| 2026-04-23 17:18 | 59.80090 | 30.28915 | 74 ft | 31 kts | 107° |
| 2026-04-23 17:18 | 59.80077 | 30.29001 | 79 ft | 31 kts | 106° |
| 2026-04-23 17:19 | 59.80030 | 30.29314 | 73 ft | 23 kts | 107° |
| 2026-04-23 17:19 | 59.79983 | 30.29624 | 70 ft | 25 kts | 107° |
| 2026-04-23 17:19 | 59.79938 | 30.29930 | 74 ft | 20 kts | 100° |
| 2026-04-23 17:19 | 59.79977 | 30.30107 | 77 ft | 2 kts | 48° |
| 2026-04-23 17:20 | 59.79993 | 30.30144 | 76 ft | 5 kts | 48° |
| 2026-04-23 17:20 | 59.79994 | 30.30146 | 73 ft | 0 kts | 48° |
| 2026-04-23 17:21 | 59.79996 | 30.30150 | 74 ft | 1 kts | 48° |
| 2026-04-23 17:21 | 59.80027 | 30.30218 | 77 ft | 6 kts | 48° |
| 2026-04-23 17:22 | 59.80069 | 30.30278 | 74 ft | 10 kts | 21° |
| 2026-04-23 17:22 | 59.80131 | 30.30174 | 72 ft | 0 kts | 285° |
| 2026-04-23 17:23 | 59.80182 | 30.29824 | 75 ft | 71 kts | 287° |
| 2026-04-23 17:23 | 59.80415 | 30.28303 | 83 ft | 157 kts | 287° |
| 2026-04-23 17:23 | 59.81093 | 30.23353 | 1833 ft | 190 kts | 291° |
| 2026-04-23 17:24 | 59.81534 | 30.20766 | 2743 ft | 208 kts | 291° |
| 2026-04-23 17:24 | 59.81966 | 30.17943 | 3226 ft | 222 kts | 290° |
| 2026-04-23 17:24 | 59.82825 | 30.12057 | 3494 ft | 227 kts | 289° |
| 2026-04-23 17:25 | 59.83696 | 30.06084 | 3512 ft | 226 kts | 290° |
| 2026-04-23 17:25 | 59.84131 | 30.03079 | 3517 ft | 226 kts | 287° |
| 2026-04-23 17:26 | 59.83161 | 29.97489 | 3502 ft | 267 kts | 222° |
| 2026-04-23 17:26 | 59.79766 | 29.94736 | 4115 ft | 261 kts | 196° |
| 2026-04-23 17:27 | 59.76558 | 29.92969 | 6227 ft | 251 kts | 196° |
| 2026-04-23 17:27 | 59.74784 | 29.92675 | 6850 ft | 265 kts | 167° |
| 2026-04-23 17:27 | 59.73114 | 29.94420 | 7235 ft | 280 kts | 129° |
| 2026-04-23 17:27 | 59.72199 | 29.97758 | 7955 ft | 278 kts | 101° |
| 2026-04-23 17:28 | 59.71693 | 30.01491 | 8571 ft | 281 kts | 99° |
| 2026-04-23 17:28 | 59.71182 | 30.05262 | 8824 ft | 284 kts | 100° |
| 2026-04-23 17:28 | 59.70646 | 30.09042 | 8813 ft | 285 kts | 100° |
| 2026-04-23 17:28 | 59.70096 | 30.12813 | 8749 ft | 286 kts | 101° |
| 2026-04-23 17:29 | 59.69589 | 30.16577 | 8817 ft | 279 kts | 94° |
| 2026-04-23 17:29 | 59.69496 | 30.20370 | 8832 ft | 276 kts | 85° |
| 2026-04-23 17:29 | 59.69433 | 30.27960 | 8822 ft | 277 kts | 86° |
| 2026-04-23 17:30 | 59.69158 | 30.31800 | 8798 ft | 285 kts | 108° |
| 2026-04-23 17:30 | 59.66224 | 30.37134 | 9548 ft | 302 kts | 151° |
| 2026-04-23 17:30 | 59.64306 | 30.38878 | 10118 ft | 315 kts | 153° |
| 2026-04-23 17:31 | 59.62217 | 30.40671 | 10281 ft | 339 kts | 154° |
| 2026-04-23 17:31 | 59.60009 | 30.42543 | 10454 ft | 360 kts | 154° |
| 2026-04-23 17:31 | 59.57695 | 30.44513 | 10610 ft | 380 kts | 154° |
| 2026-04-23 17:31 | 59.55210 | 30.46643 | 10784 ft | 398 kts | 154° |
| 2026-04-23 17:32 | 59.52638 | 30.48861 | 11128 ft | 409 kts | 154° |
| 2026-04-23 17:32 | 59.50012 | 30.51133 | 11683 ft | 414 kts | 153° |
| 2026-04-23 17:32 | 59.47425 | 30.53375 | 12273 ft | 418 kts | 153° |
| 2026-04-23 17:32 | 59.44735 | 30.55708 | 12905 ft | 423 kts | 153° |
| 2026-04-23 17:33 | 59.42070 | 30.58017 | 13611 ft | 426 kts | 153° |
| 2026-04-23 17:33 | 59.39341 | 30.60380 | 14115 ft | 432 kts | 153° |
| 2026-04-23 17:33 | 59.36720 | 30.62648 | 14613 ft | 438 kts | 153° |
| 2026-04-23 17:34 | 59.36467 | 30.62867 | 14673 ft | 438 kts | 153° |
| 2026-04-23 17:34 | 59.35648 | 30.63573 | 14837 ft | 440 kts | 153° |
| 2026-04-23 17:34 | 59.32458 | 30.66307 | 15495 ft | 445 kts | 155° |
| 2026-04-23 17:35 | 59.31007 | 30.67278 | 15752 ft | 451 kts | 165° |
| 2026-04-23 17:35 | 59.27851 | 30.67689 | 16282 ft | 458 kts | 188° |
| 2026-04-23 17:36 | 59.24812 | 30.65933 | 16867 ft | 457 kts | 209° |
| 2026-04-23 17:36 | 59.22125 | 30.62651 | 17433 ft | 456 kts | 220° |
| 2026-04-23 17:36 | 59.19547 | 30.58972 | 17940 ft | 461 kts | 220° |
| 2026-04-23 17:36 | 59.16947 | 30.55258 | 18319 ft | 468 kts | 221° |
| 2026-04-23 17:37 | 59.14290 | 30.51489 | 18756 ft | 473 kts | 221° |
| 2026-04-23 17:37 | 59.11612 | 30.47732 | 19228 ft | 477 kts | 220° |
| 2026-04-23 17:37 | 59.06239 | 30.40294 | 20097 ft | 485 kts | 220° |
| 2026-04-23 17:38 | 59.03464 | 30.36487 | 20525 ft | 490 kts | 220° |
| 2026-04-23 17:38 | 59.00671 | 30.32669 | 20945 ft | 494 kts | 220° |
| 2026-04-23 17:38 | 58.97881 | 30.28864 | 21360 ft | 498 kts | 220° |
| 2026-04-23 17:38 | 58.95040 | 30.24998 | 21751 ft | 501 kts | 221° |
| 2026-04-23 17:39 | 58.92186 | 30.21119 | 22142 ft | 505 kts | 221° |
| 2026-04-23 17:39 | 58.89286 | 30.17185 | 22537 ft | 509 kts | 221° |
| 2026-04-23 17:39 | 58.86372 | 30.13238 | 22926 ft | 513 kts | 221° |
| 2026-04-23 17:39 | 58.83430 | 30.09225 | 23510 ft | 511 kts | 221° |
| 2026-04-23 17:40 | 58.80526 | 30.05249 | 23819 ft | 514 kts | 221° |
| 2026-04-23 17:40 | 58.77623 | 30.01283 | 23804 ft | 522 kts | 221° |
| 2026-04-23 17:40 | 58.74633 | 29.97228 | 23818 ft | 529 kts | 221° |
| 2026-04-23 17:40 | 58.71566 | 29.93101 | 23522 ft | 535 kts | 221° |
| 2026-04-23 17:41 | 58.68580 | 29.89118 | 22874 ft | 525 kts | 220° |
| 2026-04-23 17:41 | 58.62637 | 29.81251 | 21484 ft | 511 kts | 220° |
| 2026-04-23 17:41 | 58.59727 | 29.77405 | 20788 ft | 504 kts | 220° |
| 2026-04-23 17:42 | 58.54029 | 29.69896 | 19411 ft | 486 kts | 219° |
| 2026-04-23 17:42 | 58.51272 | 29.66270 | 18679 ft | 476 kts | 219° |
| 2026-04-23 17:42 | 58.48571 | 29.62719 | 17826 ft | 469 kts | 219° |
| 2026-04-23 17:43 | 58.45903 | 29.59212 | 16897 ft | 462 kts | 219° |
| 2026-04-23 17:43 | 58.43271 | 29.55759 | 16048 ft | 455 kts | 219° |
| 2026-04-23 17:43 | 58.40685 | 29.52372 | 15226 ft | 447 kts | 218° |
| 2026-04-23 17:43 | 58.38142 | 29.49049 | 14453 ft | 440 kts | 218° |
| 2026-04-23 17:44 | 58.35660 | 29.45814 | 14122 ft | 422 kts | 218° |
| 2026-04-23 17:44 | 58.33292 | 29.42739 | 13974 ft | 401 kts | 218° |
| 2026-04-23 17:44 | 58.28879 | 29.37017 | 13806 ft | 369 kts | 219° |
| 2026-04-23 17:45 | 58.26798 | 29.34320 | 13789 ft | 354 kts | 219° |
| 2026-04-23 17:45 | 58.22883 | 29.29257 | 13789 ft | 327 kts | 219° |
| 2026-04-23 17:45 | 58.21062 | 29.26905 | 13790 ft | 314 kts | 219° |
| 2026-04-23 17:46 | 58.17553 | 29.22379 | 13653 ft | 302 kts | 220° |
| 2026-04-23 17:46 | 58.15768 | 29.20063 | 13572 ft | 325 kts | 219° |
| 2026-04-23 17:46 | 58.13856 | 29.17586 | 13430 ft | 338 kts | 219° |
| 2026-04-23 17:47 | 58.11979 | 29.15172 | 12898 ft | 347 kts | 218° |
| 2026-04-23 17:47 | 58.09943 | 29.12563 | 12189 ft | 357 kts | 218° |
| 2026-04-23 17:47 | 58.05893 | 29.07406 | 11781 ft | 341 kts | 218° |
| 2026-04-23 17:48 | 58.03952 | 29.04938 | 11688 ft | 330 kts | 218° |
| 2026-04-23 17:48 | 58.02076 | 29.02549 | 11536 ft | 322 kts | 218° |
| 2026-04-23 17:48 | 58.00228 | 29.00193 | 11262 ft | 319 kts | 218° |
| 2026-04-23 17:48 | 57.98394 | 28.97861 | 10930 ft | 318 kts | 218° |
| 2026-04-23 17:49 | 57.96556 | 28.95528 | 10624 ft | 317 kts | 218° |
| 2026-04-23 17:49 | 57.94746 | 28.93186 | 10352 ft | 313 kts | 219° |
| 2026-04-23 17:49 | 57.93001 | 28.90757 | 10075 ft | 311 kts | 221° |
| 2026-04-23 17:49 | 57.91284 | 28.88311 | 9803 ft | 308 kts | 221° |
| 2026-04-23 17:50 | 57.89580 | 28.85881 | 9514 ft | 306 kts | 221° |
| 2026-04-23 17:50 | 57.86213 | 28.81110 | 8907 ft | 301 kts | 220° |
| 2026-04-23 17:50 | 57.84545 | 28.78759 | 8613 ft | 299 kts | 220° |
| 2026-04-23 17:51 | 57.82888 | 28.76432 | 8318 ft | 297 kts | 220° |
| 2026-04-23 17:51 | 57.81236 | 28.74118 | 8034 ft | 295 kts | 219° |
| 2026-04-23 17:51 | 57.77995 | 28.69586 | 7468 ft | 290 kts | 219° |
| 2026-04-23 17:52 | 57.76362 | 28.67308 | 7252 ft | 285 kts | 219° |
| 2026-04-23 17:52 | 57.73312 | 28.63063 | 7096 ft | 266 kts | 219° |
| 2026-04-23 17:52 | 57.71845 | 28.61023 | 7016 ft | 257 kts | 219° |
| 2026-04-23 17:53 | 57.69063 | 28.57162 | 6801 ft | 243 kts | 219° |
| 2026-04-23 17:53 | 57.67712 | 28.55289 | 6570 ft | 241 kts | 219° |
| 2026-04-23 17:53 | 57.66365 | 28.53424 | 6348 ft | 240 kts | 219° |
| 2026-04-23 17:54 | 57.65165 | 28.51320 | 6037 ft | 235 kts | 242° |
| 2026-04-23 17:54 | 57.64723 | 28.48411 | 5382 ft | 238 kts | 277° |
| 2026-04-23 17:54 | 57.66261 | 28.43089 | 4235 ft | 234 kts | 318° |
| 2026-04-23 17:55 | 57.68594 | 28.38889 | 3136 ft | 240 kts | 319° |
| 2026-04-23 17:55 | 57.69839 | 28.36814 | 2477 ft | 238 kts | 329° |
| 2026-04-23 17:55 | 57.71363 | 28.35919 | 2058 ft | 222 kts | 355° |
| 2026-04-23 17:56 | 57.72816 | 28.36139 | 1887 ft | 200 kts | 13° |
| 2026-04-23 17:56 | 57.75194 | 28.37553 | 1783 ft | 162 kts | 15° |
| 2026-04-23 17:56 | 57.76253 | 28.38205 | 1786 ft | 159 kts | 15° |
| 2026-04-23 17:57 | 57.77305 | 28.38851 | 1799 ft | 161 kts | 15° |
| 2026-04-23 17:57 | 57.78311 | 28.39468 | 1808 ft | 162 kts | 15° |
| 2026-04-23 17:57 | 57.80529 | 28.40819 | 1815 ft | 170 kts | 15° |
| 2026-04-23 17:58 | 57.81777 | 28.41568 | 1834 ft | 204 kts | 15° |
| 2026-04-23 17:58 | 57.83177 | 28.42395 | 1816 ft | 215 kts | 15° |
| 2026-04-23 17:58 | 57.84612 | 28.43241 | 1808 ft | 216 kts | 15° |
| 2026-04-23 17:58 | 57.86040 | 28.44080 | 1798 ft | 214 kts | 15° |
| 2026-04-23 17:59 | 57.87466 | 28.44916 | 1790 ft | 215 kts | 15° |
| 2026-04-23 17:59 | 57.88897 | 28.45755 | 1799 ft | 218 kts | 15° |
| 2026-04-23 17:59 | 57.90361 | 28.46614 | 1799 ft | 219 kts | 15° |
| 2026-04-23 17:59 | 57.91800 | 28.47459 | 1792 ft | 216 kts | 15° |
| 2026-04-23 18:00 | 57.93148 | 28.48650 | 1780 ft | 219 kts | 40° |
| 2026-04-23 18:00 | 57.93818 | 28.51239 | 1801 ft | 232 kts | 81° |
| 2026-04-23 18:00 | 57.93476 | 28.54246 | 1823 ft | 242 kts | 109° |
| 2026-04-23 18:00 | 57.92753 | 28.57129 | 1812 ft | 245 kts | 112° |
| 2026-04-23 18:01 | 57.91721 | 28.59655 | 1799 ft | 251 kts | 140° |
| 2026-04-23 18:01 | 57.90153 | 28.60954 | 1799 ft | 243 kts | 167° |
| 2026-04-23 18:01 | 57.88552 | 28.61500 | 1783 ft | 223 kts | 170° |
| 2026-04-23 18:01 | 57.87087 | 28.61946 | 1764 ft | 205 kts | 170° |
| 2026-04-23 18:02 | 57.86145 | 28.62228 | 1778 ft | 200 kts | 170° |
| 2026-04-23 18:02 | 57.84336 | 28.62763 | 1792 ft | 199 kts | 171° |
| 2026-04-23 18:02 | 57.82965 | 28.63170 | 1798 ft | 200 kts | 171° |
| 2026-04-23 18:02 | 57.81593 | 28.63579 | 1802 ft | 200 kts | 170° |
| 2026-04-23 18:03 | 57.80666 | 28.63853 | 1798 ft | 200 kts | 170° |
| 2026-04-23 18:03 | 57.78836 | 28.64186 | 1785 ft | 201 kts | 191° |
| 2026-04-23 18:03 | 57.77979 | 28.63557 | 1793 ft | 195 kts | 220° |
| 2026-04-23 18:03 | 57.76995 | 28.61863 | 1809 ft | 192 kts | 230° |
| 2026-04-23 18:04 | 57.76057 | 28.60055 | 1806 ft | 194 kts | 230° |
| 2026-04-23 18:04 | 57.75133 | 28.58267 | 1799 ft | 194 kts | 230° |
| 2026-04-23 18:04 | 57.74191 | 28.56450 | 1800 ft | 195 kts | 230° |
| 2026-04-23 18:04 | 57.73246 | 28.54626 | 1795 ft | 195 kts | 230° |
| 2026-04-23 18:05 | 57.72312 | 28.52810 | 1799 ft | 193 kts | 230° |
| 2026-04-23 18:05 | 57.71377 | 28.50999 | 1798 ft | 194 kts | 230° |
| 2026-04-23 18:05 | 57.70439 | 28.49185 | 1792 ft | 194 kts | 230° |
| 2026-04-23 18:05 | 57.69508 | 28.47386 | 1785 ft | 189 kts | 230° |
| 2026-04-23 18:06 | 57.68632 | 28.45711 | 1777 ft | 172 kts | 230° |
| 2026-04-23 18:06 | 57.67895 | 28.44321 | 1767 ft | 163 kts | 230° |
| 2026-04-23 18:06 | 57.67102 | 28.42830 | 1790 ft | 162 kts | 230° |
| 2026-04-23 18:06 | 57.66317 | 28.41354 | 1787 ft | 159 kts | 230° |
| 2026-04-23 18:07 | 57.65531 | 28.39881 | 1834 ft | 162 kts | 230° |
| 2026-04-23 18:07 | 57.64733 | 28.38386 | 1807 ft | 161 kts | 230° |
| 2026-04-23 18:07 | 57.63947 | 28.36925 | 1798 ft | 159 kts | 230° |
| 2026-04-23 18:07 | 57.63167 | 28.35476 | 1792 ft | 157 kts | 230° |
| 2026-04-23 18:08 | 57.62411 | 28.34070 | 1791 ft | 155 kts | 230° |
| 2026-04-23 18:08 | 57.61683 | 28.32675 | 1786 ft | 153 kts | 238° |
| 2026-04-23 18:08 | 57.61388 | 28.30885 | 1820 ft | 144 kts | 281° |
| 2026-04-23 18:08 | 57.61464 | 28.28984 | 1811 ft | 147 kts | 280° |
| 2026-04-23 18:09 | 57.61531 | 28.27092 | 1796 ft | 145 kts | 280° |
| 2026-04-23 18:09 | 57.61595 | 28.25253 | 1801 ft | 143 kts | 280° |
| 2026-04-23 18:09 | 57.61661 | 28.23394 | 1808 ft | 144 kts | 280° |
| 2026-04-23 18:09 | 57.61723 | 28.21523 | 1794 ft | 145 kts | 280° |
| 2026-04-23 18:10 | 57.61778 | 28.19648 | 1796 ft | 144 kts | 281° |
| 2026-04-23 18:10 | 57.61694 | 28.17774 | 1783 ft | 151 kts | 252° |
| 2026-04-23 18:10 | 57.60909 | 28.16439 | 1795 ft | 162 kts | 201° |
| 2026-04-23 18:10 | 57.59771 | 28.16569 | 1821 ft | 171 kts | 151° |
| 2026-04-23 18:11 | 57.58993 | 28.18113 | 1798 ft | 160 kts | 102° |
| 2026-04-23 18:11 | 57.58812 | 28.20083 | 1825 ft | 154 kts | 91° |
| 2026-04-23 18:11 | 57.58792 | 28.22044 | 1781 ft | 148 kts | 65° |
| 2026-04-23 18:11 | 57.59287 | 28.23595 | 1808 ft | 139 kts | 50° |
| 2026-04-23 18:12 | 57.59827 | 28.25097 | 1807 ft | 139 kts | 50° |
| 2026-04-23 18:12 | 57.60365 | 28.26606 | 1809 ft | 140 kts | 50° |
| 2026-04-23 18:12 | 57.60907 | 28.28126 | 1807 ft | 141 kts | 50° |
| 2026-04-23 18:12 | 57.61446 | 28.29636 | 1798 ft | 140 kts | 47° |
| 2026-04-23 18:13 | 57.62194 | 28.30623 | 1816 ft | 131 kts | 14° |
| 2026-04-23 18:13 | 57.63080 | 28.31066 | 1805 ft | 132 kts | 12° |
| 2026-04-23 18:13 | 57.63977 | 28.31483 | 1789 ft | 134 kts | 12° |
| 2026-04-23 18:13 | 57.64889 | 28.31919 | 1752 ft | 136 kts | 12° |
| 2026-04-23 18:14 | 57.65798 | 28.32376 | 1769 ft | 135 kts | 13° |
| 2026-04-23 18:14 | 57.66700 | 28.32860 | 1769 ft | 134 kts | 13° |
| 2026-04-23 18:14 | 57.67592 | 28.33353 | 1760 ft | 134 kts | 13° |
| 2026-04-23 18:14 | 57.68484 | 28.33837 | 1763 ft | 133 kts | 13° |
| 2026-04-23 18:15 | 57.69376 | 28.34291 | 1688 ft | 131 kts | 13° |
| 2026-04-23 18:15 | 57.70255 | 28.34748 | 1554 ft | 133 kts | 13° |
| 2026-04-23 18:15 | 57.71144 | 28.35239 | 1447 ft | 133 kts | 14° |
| 2026-04-23 18:15 | 57.72028 | 28.35746 | 1365 ft | 134 kts | 14° |
| 2026-04-23 18:16 | 57.72921 | 28.36282 | 1223 ft | 136 kts | 14° |
| 2026-04-23 18:16 | 57.73830 | 28.36775 | 1077 ft | 138 kts | 15° |
| 2026-04-23 18:16 | 57.74752 | 28.37358 | 847 ft | 141 kts | 16° |
| 2026-04-23 18:17 | 57.76647 | 28.38471 | 362 ft | 142 kts | 15° |
| 2026-04-23 18:17 | 57.77566 | 28.39029 | 202 ft | 142 kts | 17° |
| 2026-04-23 18:17 | 57.78469 | 28.39578 | 153 ft | 124 kts | 14° |
| 2026-04-23 18:17 | 57.78876 | 28.39823 | 152 ft | 27 kts | 18° |
| 2026-04-23 18:18 | 57.79056 | 28.39930 | 155 ft | 26 kts | 17° |
| 2026-04-23 18:18 | 57.79180 | 28.40002 | 155 ft | 18 kts | 15° |
| 2026-04-23 18:18 | 57.79254 | 28.39988 | 154 ft | 1 kts | 332° |
| 2026-04-23 18:18 | 57.79255 | 28.39986 | 154 ft | 0 kts | 332° |
| 2026-04-23 18:19 | 57.79259 | 28.39982 | 154 ft | 2 kts | 330° |
| 2026-04-23 18:19 | 57.79282 | 28.39950 | 153 ft | 6 kts | 317° |
| 2026-04-23 18:19 | 57.79320 | 28.39884 | 153 ft | 9 kts | 317° |
| 2026-04-23 18:20 | 57.79364 | 28.39803 | 153 ft | 11 kts | 315° |
| 2026-04-23 18:20 | 57.79424 | 28.39693 | 153 ft | 13 kts | 315° |
| 2026-04-23 18:20 | 57.79490 | 28.39568 | 153 ft | 14 kts | 314° |
| 2026-04-23 18:20 | 57.79565 | 28.39427 | 153 ft | 16 kts | 314° |
| 2026-04-23 18:21 | 57.79599 | 28.39355 | 153 ft | 7 kts | 309° |
| 2026-04-23 18:21 | 57.79613 | 28.39279 | 153 ft | 7 kts | 264° |
| 2026-04-23 18:21 | 57.79614 | 28.39190 | 153 ft | 7 kts | 296° |
| 2026-04-23 18:21 | 57.79619 | 28.39180 | 153 ft | 0 kts | 317° |
| 2026-04-23 18:22 | 57.79620 | 28.39179 | 153 ft | 0 kts | 322° |
| 2026-04-23 18:22 | 57.79625 | 28.39181 | 153 ft | 1 kts | 11° |
| 2026-04-23 18:22 | 57.79637 | 28.39208 | 153 ft | 4 kts | 53° |
| 2026-04-23 18:22 | 57.79642 | 28.39222 | 153 ft | 0 kts | 56° |
| 2026-04-23 18:23 | 57.79643 | 28.39224 | 153 ft | 0 kts | 56° |